createdAt,value
2023-04-25T00:01:23.102Z,35.45
2023-04-25T00:03:51.760Z,35.74
2023-04-25T00:06:19.658Z,35.78
2023-04-25T00:08:47.478Z,35.67
2023-04-25T00:11:14.945Z,35.85
2023-04-25T00:13:42.936Z,35.97
2023-04-25T00:16:10.625Z,35.85
2023-04-25T00:18:38.298Z,36.34
2023-04-25T00:21:07.382Z,36.43
2023-04-25T00:23:36.813Z,36.67
2023-04-25T00:26:04.443Z,37.21
2023-04-25T00:28:32.032Z,37.41
2023-04-25T00:30:59.596Z,37.21
2023-04-25T00:33:27.221Z,37.25
2023-04-25T00:35:55.109Z,36.75
2023-04-25T00:38:22.799Z,36.84
2023-04-25T00:40:51.403Z,36.70
2023-04-25T00:43:18.876Z,36.46
2023-04-25T00:45:48.345Z,36.53
2023-04-25T00:48:16.061Z,36.83
2023-04-25T00:50:54.323Z,37.67
2023-04-25T00:53:28.259Z,37.82
2023-04-25T00:55:56.134Z,37.59
2023-04-25T00:58:24.152Z,38.25
2023-04-25T01:00:53.369Z,38.42
2023-04-25T01:03:21.813Z,38.79
2023-04-25T01:05:49.730Z,38.71
2023-04-25T01:08:17.338Z,39.16
2023-04-25T01:10:45.006Z,39.33
2023-04-25T01:13:12.628Z,39.42
2023-04-25T01:15:40.344Z,39.20
2023-04-25T01:18:08.039Z,39.38
2023-04-25T01:20:35.743Z,39.33
2023-04-25T01:23:04.168Z,39.29
2023-04-25T01:25:32.578Z,39.28
2023-04-25T01:28:00.472Z,39.33
2023-04-25T01:30:30.334Z,39.30
2023-04-25T01:32:59.026Z,39.13
2023-04-25T01:35:26.623Z,39.38
2023-04-25T01:37:56.980Z,39.21
2023-04-25T01:40:25.958Z,39.57
2023-04-25T01:42:54.004Z,39.40
2023-04-25T01:45:22.154Z,39.34
2023-04-25T01:47:51.034Z,39.24
2023-04-25T01:50:19.924Z,39.13
2023-04-25T01:52:47.706Z,39.22
2023-04-25T01:55:15.578Z,39.28
2023-04-25T01:58:04.319Z,39.58
2023-04-25T02:00:58.588Z,39.34
2023-04-25T02:06:01.261Z,39.77
2023-04-25T02:08:31.383Z,39.89
2023-04-25T02:10:59.195Z,39.47
2023-04-25T02:13:32.289Z,39.96
2023-04-25T02:16:19.093Z,39.96
2023-04-25T02:18:46.782Z,40.22
2023-04-25T02:21:14.246Z,40.10
2023-04-25T02:23:41.784Z,39.84
2023-04-25T02:26:09.290Z,39.88
2023-04-25T02:28:36.962Z,39.65
2023-04-25T02:31:06.414Z,39.45
2023-04-25T02:33:33.934Z,39.42
2023-04-25T02:36:01.540Z,39.46
2023-04-25T02:38:29.315Z,39.38
2023-04-25T02:40:58.194Z,39.47
2023-04-25T02:43:27.628Z,39.12
2023-04-25T02:45:55.275Z,39.27
2023-04-25T02:48:22.785Z,39.33
2023-04-25T02:50:50.329Z,39.42
2023-04-25T02:53:17.870Z,39.46
2023-04-25T02:55:49.921Z,39.65
2023-04-25T02:58:18.159Z,39.81
2023-04-25T03:00:49.052Z,39.62
2023-04-25T03:03:19.268Z,39.42
2023-04-25T03:05:47.980Z,39.18
2023-04-25T03:08:18.403Z,39.33
2023-04-25T03:10:46.717Z,39.19
2023-04-25T03:13:16.372Z,39.14
2023-04-25T03:15:45.182Z,39.18
2023-04-25T03:18:12.794Z,39.31
2023-04-25T03:20:42.784Z,39.75
2023-04-25T03:23:10.615Z,39.84
2023-04-25T03:25:43.950Z,39.74
2023-04-25T03:28:11.721Z,40.02
2023-04-25T03:30:39.377Z,40.03
2023-04-25T03:33:07.173Z,40.19
2023-04-25T03:35:34.886Z,40.51
2023-04-25T03:38:02.355Z,40.50
2023-04-25T03:40:35.322Z,40.79
2023-04-25T03:43:20.367Z,41.24
2023-04-25T03:45:56.543Z,41.74
2023-04-25T03:48:27.011Z,41.91
2023-04-25T03:50:55.864Z,42.45
2023-04-25T03:53:23.954Z,42.25
2023-04-25T03:56:23.961Z,42.32
2023-04-25T03:58:59.694Z,42.22
2023-04-25T04:01:29.724Z,42.18
2023-04-25T04:03:57.747Z,42.23
2023-04-25T04:06:26.771Z,41.85
2023-04-25T04:09:02.756Z,42.22
2023-04-25T04:11:33.447Z,41.98
2023-04-25T04:14:01.108Z,41.62
2023-04-25T04:16:29.361Z,41.69
2023-04-25T04:18:57.029Z,41.51
2023-04-25T04:21:25.365Z,41.66
2023-04-25T04:23:53.554Z,41.50
2023-04-25T04:26:25.256Z,41.79
2023-04-25T04:29:13.811Z,41.94
2023-04-25T04:31:49.489Z,42.38
2023-04-25T04:34:18.954Z,42.14
2023-04-25T04:36:47.341Z,42.01
2023-04-25T04:39:15.398Z,42.01
2023-04-25T04:41:59.850Z,41.42
2023-04-25T04:44:41.404Z,41.60
2023-04-25T04:47:24.857Z,41.51
2023-04-25T04:50:11.717Z,41.55
2023-04-25T04:53:05.876Z,41.26
2023-04-25T04:55:39.252Z,40.85
2023-04-25T04:58:25.558Z,40.11
2023-04-25T05:01:07.418Z,39.42
2023-04-25T05:03:55.394Z,39.11
2023-04-25T05:06:49.113Z,38.61
2023-04-25T05:09:35.269Z,37.80
2023-04-25T05:12:11.200Z,37.85
2023-04-25T05:14:57.706Z,37.66
2023-04-25T05:17:34.371Z,37.11
2023-04-25T05:20:22.186Z,37.00
2023-04-25T05:23:13.700Z,37.04
2023-04-25T05:25:54.775Z,36.73
2023-04-25T05:28:42.182Z,36.25
2023-04-25T05:31:25.067Z,36.30
2023-04-25T05:34:15.532Z,35.98
2023-04-25T05:37:03.587Z,35.68
2023-04-25T05:39:33.109Z,35.58
2023-04-25T05:42:18.981Z,35.12
2023-04-25T05:44:46.541Z,34.44
2023-04-25T05:47:32.580Z,34.22
2023-04-25T05:50:09.132Z,33.73
2023-04-25T05:53:03.792Z,33.51
2023-04-25T05:55:33.559Z,33.23
2023-04-25T05:58:11.727Z,33.30
2023-04-25T06:00:39.558Z,33.21
2023-04-25T06:03:09.148Z,33.56
2023-04-25T06:05:37.510Z,33.49
2023-04-25T06:08:05.131Z,33.32
2023-04-25T06:10:32.815Z,32.76
2023-04-25T06:13:00.580Z,32.31
2023-04-25T06:15:29.022Z,31.78
2023-04-25T06:17:57.707Z,31.53
2023-04-25T06:20:25.921Z,31.14
2023-04-25T06:22:55.609Z,30.89
2023-04-25T06:25:32.048Z,30.53
2023-04-25T06:28:00.854Z,30.07
2023-04-25T06:30:29.070Z,29.59
2023-04-25T06:33:02.490Z,29.23
2023-04-25T06:35:31.655Z,29.10
2023-04-25T06:37:59.692Z,29.05
2023-04-25T06:40:27.721Z,28.06
2023-04-25T06:42:55.549Z,28.14
2023-04-25T06:45:51.060Z,27.57
2023-04-25T06:48:20.429Z,27.42
2023-04-25T06:50:48.285Z,26.50
2023-04-25T06:53:16.007Z,25.71
2023-04-25T06:55:46.466Z,25.43
2023-04-25T06:58:24.623Z,25.29
2023-04-25T07:01:03.010Z,24.37
2023-04-25T07:03:31.583Z,24.21
2023-04-25T07:06:03.313Z,23.81
2023-04-25T07:08:31.534Z,23.75
2023-04-25T07:11:00.064Z,22.96
2023-04-25T07:13:27.675Z,22.50
2023-04-25T07:15:57.256Z,22.39
2023-04-25T07:18:25.823Z,21.87
2023-04-25T07:20:53.814Z,21.93
2023-04-25T07:23:21.554Z,21.88
2023-04-25T07:25:49.620Z,21.62
2023-04-25T07:28:22.020Z,21.42
2023-04-25T07:30:49.718Z,21.26
2023-04-25T07:33:22.706Z,20.53
2023-04-25T07:35:51.235Z,19.95
2023-04-25T07:38:19.327Z,20.16
2023-04-25T07:40:49.688Z,19.92
2023-04-25T07:43:18.491Z,20.00
2023-04-25T07:45:56.627Z,19.66
2023-04-25T07:48:27.458Z,19.34
2023-04-25T07:50:55.249Z,18.96
2023-04-25T07:53:23.212Z,18.37
2023-04-25T07:55:56.214Z,18.54
2023-04-25T07:58:24.410Z,18.67
2023-04-25T08:00:56.537Z,19.02
2023-04-25T08:03:33.412Z,18.83
2023-04-25T08:06:05.772Z,19.19
2023-04-25T08:08:42.050Z,19.55
2023-04-25T08:11:12.700Z,19.25
2023-04-25T08:13:41.464Z,18.82
2023-04-25T08:16:09.146Z,19.34
2023-04-25T08:18:37.021Z,20.33
2023-04-25T08:21:04.979Z,21.55
2023-04-25T08:23:32.618Z,21.38
2023-04-25T08:26:12.603Z,20.95
2023-04-25T08:28:41.193Z,19.99
2023-04-25T08:31:08.901Z,19.72
2023-04-25T08:33:50.613Z,18.46
2023-04-25T08:36:39.684Z,18.28
2023-04-25T08:39:29.379Z,17.93
2023-04-25T08:42:34.062Z,17.58
2023-04-25T08:45:07.037Z,17.81
2023-04-25T08:47:40.959Z,18.04
2023-04-25T08:50:09.386Z,18.80
2023-04-25T08:52:44.367Z,19.86
2023-04-25T08:55:13.656Z,20.31
2023-04-25T08:57:45.901Z,20.01
2023-04-25T09:00:14.106Z,19.21
2023-04-25T09:02:45.100Z,19.12
2023-04-25T09:05:16.680Z,18.72
2023-04-25T09:07:45.670Z,18.14
2023-04-25T09:10:13.885Z,17.46
2023-04-25T09:12:41.942Z,17.00
2023-04-25T09:15:12.782Z,16.09
2023-04-25T09:18:09.200Z,15.76
2023-04-25T09:23:16.592Z,15.69
2023-04-25T09:25:44.634Z,15.88
2023-04-25T09:28:12.373Z,16.18
2023-04-25T09:30:40.480Z,16.00
2023-04-25T09:33:38.318Z,15.80
2023-04-25T09:36:12.251Z,15.12
2023-04-25T09:39:02.259Z,14.86
2023-04-25T09:41:33.854Z,14.02
2023-04-25T09:44:04.842Z,13.54
2023-04-25T09:46:43.769Z,12.77
2023-04-25T09:49:21.484Z,12.33
2023-04-25T09:52:03.811Z,12.11
2023-04-25T09:54:41.801Z,12.30
2023-04-25T09:57:19.600Z,12.80
2023-04-25T09:59:50.353Z,12.88
2023-04-25T10:02:23.324Z,13.74
2023-04-25T10:04:56.553Z,14.35
2023-04-25T10:07:39.226Z,14.85
2023-04-25T10:10:14.124Z,14.32
2023-04-25T10:12:44.551Z,13.78
2023-04-25T10:15:13.343Z,12.84
2023-04-25T10:17:41.407Z,12.36
2023-04-25T10:20:12.104Z,12.56
2023-04-25T10:22:45.465Z,12.07
2023-04-25T10:25:14.439Z,12.01
2023-04-25T10:27:42.062Z,11.74
2023-04-25T10:30:16.818Z,11.58
2023-04-25T10:32:46.562Z,11.53
2023-04-25T10:35:25.971Z,11.44
2023-04-25T10:38:13.858Z,10.74
2023-04-25T10:40:41.592Z,10.86
2023-04-25T10:43:37.353Z,11.00
2023-04-25T10:46:17.219Z,11.28
2023-04-25T10:48:56.586Z,11.54
2023-04-25T10:51:26.527Z,11.36
2023-04-25T10:54:08.899Z,11.15
2023-04-25T10:56:42.418Z,12.04
2023-04-25T10:59:18.432Z,12.78
2023-04-25T11:01:48.205Z,12.30
2023-04-25T11:04:29.952Z,11.46
2023-04-25T11:07:06.875Z,11.67
2023-04-25T11:09:37.484Z,12.58
2023-04-25T11:12:06.157Z,13.10
2023-04-25T11:14:33.908Z,12.63
2023-04-25T11:17:05.049Z,11.86
2023-04-25T11:19:33.008Z,12.10
2023-04-25T11:22:02.271Z,13.30
2023-04-25T11:24:31.157Z,14.18
2023-04-25T11:27:05.474Z,14.40
2023-04-25T11:29:35.119Z,13.81
2023-04-25T11:32:03.458Z,13.55
2023-04-25T11:34:33.283Z,14.27
2023-04-25T11:37:03.256Z,14.31
2023-04-25T11:39:31.602Z,14.52
2023-04-25T11:42:01.526Z,14.92
2023-04-25T11:44:29.720Z,15.26
2023-04-25T11:46:57.455Z,15.47
2023-04-25T11:49:26.021Z,15.81
2023-04-25T11:51:53.781Z,16.39
2023-04-25T11:54:21.414Z,16.86
2023-04-25T11:56:49.230Z,17.26
2023-04-25T11:59:17.897Z,17.75
2023-04-25T12:01:51.741Z,18.75
2023-04-25T12:04:24.384Z,18.38
2023-04-25T12:06:56.330Z,18.48
2023-04-25T12:09:34.896Z,19.01
2023-04-25T12:12:06.976Z,18.99
2023-04-25T12:14:37.085Z,18.90
2023-04-25T12:17:08.858Z,18.91
2023-04-25T12:19:41.300Z,18.75
2023-04-25T12:22:24.246Z,19.28
2023-04-25T12:24:52.534Z,19.20
2023-04-25T12:27:21.122Z,20.39
2023-04-25T12:29:54.121Z,21.29
2023-04-25T12:32:22.098Z,21.38
2023-04-25T12:34:49.656Z,21.46
2023-04-25T12:37:17.724Z,21.77
2023-04-25T12:39:45.389Z,21.77
2023-04-25T12:42:13.368Z,22.33
2023-04-25T12:44:42.273Z,22.24
2023-04-25T12:47:10.644Z,23.00
2023-04-25T12:49:38.622Z,22.81
2023-04-25T12:52:06.091Z,22.61
2023-04-25T12:54:33.824Z,22.70
2023-04-25T12:57:03.984Z,22.80
2023-04-25T12:59:31.755Z,22.72
2023-04-25T13:01:59.451Z,22.40
2023-04-25T13:04:27.140Z,22.51
2023-04-25T13:06:54.919Z,23.11
2023-04-25T13:09:22.545Z,23.75
2023-04-25T13:11:50.247Z,24.57
2023-04-25T13:14:17.768Z,25.07
2023-04-25T13:19:12.757Z,26.09
2023-04-25T13:21:40.357Z,26.51
2023-04-25T13:24:08.456Z,26.94
2023-04-25T13:26:36.765Z,27.00
2023-04-25T13:29:04.909Z,27.27
2023-04-25T13:31:33.014Z,27.44
2023-04-25T13:34:00.867Z,27.75
2023-04-25T13:36:29.004Z,27.88
2023-04-25T13:38:56.539Z,27.87
2023-04-25T13:41:24.394Z,27.79
2023-04-25T13:43:52.731Z,28.09
2023-04-25T13:46:40.942Z,28.19
2023-04-25T13:49:13.506Z,28.11
2023-04-25T13:51:43.703Z,28.14
2023-04-25T13:54:11.641Z,28.18
2023-04-25T13:56:39.536Z,28.54
2023-04-25T13:59:07.174Z,27.99
2023-04-25T14:01:36.896Z,28.01
2023-04-25T14:04:05.398Z,27.92
2023-04-25T14:06:34.232Z,27.88
2023-04-25T14:09:02.290Z,27.62
2023-04-25T14:11:30.227Z,27.18
2023-04-25T14:13:57.792Z,26.87
2023-04-25T14:16:25.770Z,26.81
2023-04-25T14:18:53.618Z,27.03
2023-04-25T14:21:22.051Z,26.56
2023-04-25T14:23:49.735Z,26.52
2023-04-25T14:26:17.470Z,26.36
2023-04-25T14:28:45.054Z,26.55
2023-04-25T14:31:12.771Z,26.73
2023-04-25T14:33:43.291Z,27.03
2023-04-25T14:36:11.565Z,27.75
2023-04-25T14:38:39.393Z,27.31
2023-04-25T14:41:07.316Z,27.37
2023-04-25T14:43:34.964Z,27.25
2023-04-25T14:46:03.184Z,27.58
2023-04-25T14:48:31.233Z,27.73
2023-04-25T14:50:58.945Z,28.01
2023-04-25T14:53:26.608Z,27.82
2023-04-25T14:55:54.953Z,28.08
2023-04-25T14:58:22.522Z,28.46
2023-04-25T15:00:50.218Z,28.28
2023-04-25T15:03:19.339Z,28.29
2023-04-25T15:05:46.951Z,28.91
2023-04-25T15:08:14.651Z,29.26
2023-04-25T15:10:42.277Z,28.97
2023-04-25T15:13:11.583Z,29.10
2023-04-25T15:15:39.269Z,29.16
2023-04-25T15:18:07.162Z,29.10
2023-04-25T15:20:36.175Z,29.08
2023-04-25T15:23:04.613Z,29.49
2023-04-25T15:25:32.094Z,29.58
2023-04-25T15:28:01.023Z,29.34
2023-04-25T15:30:29.070Z,29.93
2023-04-25T15:32:56.759Z,30.59
2023-04-25T15:35:24.379Z,30.88
2023-04-25T15:37:52.380Z,30.36
2023-04-25T15:40:20.027Z,30.25
2023-04-25T15:42:52.722Z,30.08
2023-04-25T15:45:24.289Z,30.31
2023-04-25T15:47:53.677Z,30.45
2023-04-25T15:50:21.357Z,30.52
2023-04-25T15:52:51.584Z,30.78
2023-04-25T15:55:21.204Z,30.40
2023-04-25T15:57:50.137Z,30.29
2023-04-25T16:00:19.614Z,30.36
2023-04-25T16:02:48.755Z,30.67
2023-04-25T16:05:19.305Z,31.28
2023-04-25T16:07:47.904Z,30.95
2023-04-25T16:10:20.102Z,31.77
2023-04-25T16:12:49.916Z,30.76
2023-04-25T16:15:18.166Z,31.15
2023-04-25T16:17:45.923Z,30.43
2023-04-25T16:20:14.183Z,30.11
2023-04-25T16:22:43.524Z,30.15
2023-04-25T16:25:12.139Z,30.16
2023-04-25T16:27:39.924Z,29.91
2023-04-25T16:30:09.641Z,29.99
2023-04-25T16:32:38.272Z,31.00
2023-04-25T16:35:06.843Z,31.12
2023-04-25T16:37:34.448Z,30.78
2023-04-25T16:40:02.006Z,31.29
2023-04-25T16:42:33.632Z,30.62
2023-04-25T16:45:01.310Z,30.64
2023-04-25T16:47:32.520Z,30.38
2023-04-25T16:50:01.731Z,30.16
2023-04-25T16:52:32.109Z,30.28
2023-04-25T16:54:59.765Z,30.27
2023-04-25T16:57:27.352Z,30.77
2023-04-25T16:59:54.928Z,30.46
2023-04-25T17:02:22.792Z,31.09
2023-04-25T17:04:50.492Z,30.98
2023-04-25T17:07:24.152Z,30.71
2023-04-25T17:09:51.939Z,30.69
2023-04-25T17:12:20.298Z,31.30
2023-04-25T17:14:49.395Z,31.31
2023-04-25T17:17:18.943Z,31.03
2023-04-25T17:19:47.277Z,32.27
2023-04-25T17:22:15.250Z,34.59
2023-04-25T17:24:43.125Z,36.90
2023-04-25T17:27:11.603Z,39.37
2023-04-25T17:29:39.309Z,40.09
2023-04-25T17:32:07.753Z,41.02
2023-04-25T17:34:37.683Z,41.35
2023-04-25T17:37:05.970Z,41.76
2023-04-25T17:39:33.673Z,42.40
2023-04-25T17:42:01.237Z,42.91
2023-04-25T17:44:28.910Z,43.10
2023-04-25T17:46:56.369Z,43.66
2023-04-25T17:49:23.986Z,44.23
2023-04-25T17:51:51.723Z,44.49
2023-04-25T17:54:22.241Z,44.75
2023-04-25T17:56:49.788Z,45.35
2023-04-25T17:59:17.872Z,45.70
2023-04-25T18:01:47.902Z,46.41
2023-04-25T18:04:15.995Z,46.85
2023-04-25T18:06:44.305Z,48.09
2023-04-25T18:09:18.276Z,49.94
2023-04-25T18:11:46.636Z,51.17
2023-04-25T18:14:16.182Z,52.78
2023-04-25T18:16:44.490Z,53.31
2023-04-25T18:19:15.670Z,53.35
2023-04-25T18:21:43.690Z,53.92
2023-04-25T18:24:13.854Z,54.00
2023-04-25T18:26:42.134Z,54.29
2023-04-25T18:29:16.261Z,54.30
2023-04-25T18:31:50.055Z,54.74
2023-04-25T18:34:20.467Z,54.92
2023-04-25T18:36:48.128Z,55.11
2023-04-25T18:39:22.722Z,55.12
2023-04-25T18:41:57.190Z,54.99
2023-04-25T18:44:28.379Z,55.37
2023-04-25T18:46:55.943Z,55.55
2023-04-25T18:49:24.014Z,55.38
2023-04-25T18:51:52.162Z,55.41
2023-04-25T18:54:19.728Z,55.40
2023-04-25T18:56:47.373Z,55.14
2023-04-25T18:59:18.377Z,55.04
2023-04-25T19:01:46.321Z,54.89
2023-04-25T19:04:14.054Z,54.50
2023-04-25T19:06:42.399Z,54.55
2023-04-25T19:09:10.409Z,53.90
2023-04-25T19:11:38.374Z,54.12
2023-04-25T19:14:06.034Z,54.06
2023-04-25T19:16:38.763Z,53.99
2023-04-25T19:19:07.729Z,53.54
2023-04-25T19:21:36.557Z,53.63
2023-04-25T19:24:05.320Z,53.62
2023-04-25T19:26:32.908Z,53.41
2023-04-25T19:29:06.112Z,53.88
2023-04-25T19:31:38.057Z,53.60
2023-04-25T19:34:07.214Z,53.43
2023-04-25T19:36:37.161Z,53.15
2023-04-25T19:39:07.498Z,53.20
2023-04-25T19:41:37.728Z,53.29
2023-04-25T19:44:08.558Z,53.21
2023-04-25T19:46:37.218Z,52.84
2023-04-25T19:49:09.312Z,53.12
2023-04-25T19:51:37.394Z,52.78
2023-04-25T19:54:05.316Z,52.89
2023-04-25T19:56:33.368Z,53.10
2023-04-25T19:59:01.150Z,52.96
2023-04-25T20:01:28.948Z,53.05
2023-04-25T20:03:56.820Z,53.03
2023-04-25T20:06:24.749Z,53.30
2023-04-25T20:08:56.010Z,54.01
2023-04-25T20:11:23.943Z,53.26
2023-04-25T20:13:51.749Z,53.19
2023-04-25T20:16:19.975Z,52.81
2023-04-25T20:18:48.872Z,52.48
2023-04-25T20:21:17.279Z,52.25
2023-04-25T20:23:45.755Z,52.07
2023-04-25T20:26:13.617Z,52.48
2023-04-25T20:28:44.282Z,51.91
2023-04-25T20:31:12.184Z,52.22
2023-04-25T20:33:39.923Z,52.14
2023-04-25T20:36:07.828Z,52.18
2023-04-25T20:38:35.638Z,52.01
2023-04-25T20:41:03.850Z,51.99
2023-04-25T20:43:31.578Z,52.01
2023-04-25T20:46:00.315Z,51.96
2023-04-25T20:48:27.921Z,51.30
2023-04-25T20:50:55.514Z,51.22
2023-04-25T20:53:23.313Z,51.03
2023-04-25T20:55:51.036Z,50.91
2023-04-25T20:58:18.634Z,51.08
2023-04-25T21:00:47.706Z,50.66
2023-04-25T21:03:16.215Z,50.80
2023-04-25T21:05:43.964Z,50.42
2023-04-25T21:08:12.937Z,50.29
2023-04-25T21:10:41.034Z,50.49
2023-04-25T21:13:08.828Z,50.21
2023-04-25T21:15:36.498Z,50.45
2023-04-25T21:18:04.273Z,50.61
2023-04-25T21:20:32.650Z,50.84
2023-04-25T21:23:00.437Z,50.85
2023-04-25T21:25:31.774Z,50.94
2023-04-25T21:28:00.384Z,51.17
2023-04-25T21:30:28.352Z,51.40
2023-04-25T21:32:56.515Z,51.35
2023-04-25T21:35:24.414Z,51.53
2023-04-25T21:37:52.531Z,51.61
2023-04-25T21:40:20.279Z,51.65
2023-04-25T21:42:51.555Z,51.91
2023-04-25T21:45:20.496Z,52.18
2023-04-25T21:47:48.802Z,52.41
2023-04-25T21:50:17.284Z,52.64
2023-04-25T21:52:45.021Z,52.54
2023-04-25T21:55:12.845Z,52.79
2023-04-25T21:57:41.368Z,53.07
2023-04-25T22:00:24.577Z,53.05
2023-04-25T22:02:53.087Z,53.66
2023-04-25T22:05:22.791Z,53.67
2023-04-25T22:07:52.204Z,54.29
2023-04-25T22:10:21.587Z,54.69
2023-04-25T22:12:52.224Z,54.86
2023-04-25T22:15:21.579Z,55.41
2023-04-25T22:17:52.540Z,56.06
2023-04-25T22:20:24.360Z,56.43
2023-04-25T22:22:53.241Z,57.06
2023-04-25T22:25:21.330Z,57.56
2023-04-25T22:27:49.442Z,58.07
2023-04-25T22:30:17.494Z,58.45
2023-04-25T22:32:45.321Z,58.53
2023-04-25T22:35:13.003Z,58.83
2023-04-25T22:37:41.670Z,59.44
2023-04-25T22:40:09.652Z,59.62
2023-04-25T22:42:42.412Z,61.03
2023-04-25T22:45:12.424Z,61.11
2023-04-25T22:47:40.419Z,60.76
2023-04-25T22:50:13.349Z,61.11
2023-04-25T22:52:42.791Z,61.44
2023-04-25T22:55:12.526Z,61.66
2023-04-25T22:57:40.999Z,62.02
2023-04-25T23:00:16.063Z,62.55
2023-04-25T23:02:46.317Z,62.58
2023-04-25T23:05:15.707Z,62.51
2023-04-25T23:07:46.728Z,62.28
2023-04-25T23:10:14.615Z,62.80
2023-04-25T23:12:42.430Z,62.89
2023-04-25T23:15:10.559Z,62.80
2023-04-25T23:17:40.478Z,63.06
2023-04-25T23:20:10.824Z,63.10
2023-04-25T23:22:38.973Z,62.97
2023-04-25T23:25:07.801Z,63.05
2023-04-25T23:27:35.474Z,63.72
2023-04-25T23:30:03.231Z,64.23
2023-04-25T23:32:33.701Z,64.21
2023-04-25T23:35:01.800Z,64.52
2023-04-25T23:37:37.709Z,65.42
2023-04-25T23:40:12.651Z,65.13
2023-04-25T23:42:41.668Z,65.11
2023-04-25T23:45:09.922Z,65.20
2023-04-25T23:47:37.689Z,65.38
2023-04-25T23:50:06.174Z,65.65
2023-04-25T23:52:33.846Z,65.58
2023-04-25T23:55:01.684Z,65.64
2023-04-25T23:57:30.960Z,65.72
2023-04-25T23:59:59.090Z,66.02
